sensor_id;sensor_type;location;lat;lon;timestamp;P1;durP1;ratioP1;P2;durP2;ratioP2
21771;SDS011;11047;47.904;8.110;2023-05-21T00:01:54;8.60;;;6.72;;
21771;SDS011;11047;47.904;8.110;2023-05-21T00:04:24;9.18;;;7.18;;
21771;SDS011;11047;47.904;8.110;2023-05-21T00:06:52;15.02;;;7.13;;
21771;SDS011;11047;47.904;8.110;2023-05-21T00:09:19;8.30;;;7.43;;
21771;SDS011;11047;47.904;8.110;2023-05-21T00:11:46;7.88;;;6.65;;
21771;SDS011;11047;47.904;8.110;2023-05-21T00:14:15;9.68;;;6.93;;
21771;SDS011;11047;47.904;8.110;2023-05-21T00:16:42;10.27;;;7.28;;
21771;SDS011;11047;47.904;8.110;2023-05-21T00:19:11;7.35;;;6.57;;
21771;SDS011;11047;47.904;8.110;2023-05-21T00:21:38;8.05;;;7.25;;
21771;SDS011;11047;47.904;8.110;2023-05-21T00:24:05;12.70;;;8.00;;
21771;SDS011;11047;47.904;8.110;2023-05-21T00:26:32;15.00;;;8.13;;
21771;SDS011;11047;47.904;8.110;2023-05-21T00:28:59;9.75;;;7.38;;
21771;SDS011;11047;47.904;8.110;2023-05-21T00:31:28;9.35;;;7.00;;
21771;SDS011;11047;47.904;8.110;2023-05-21T00:33:56;8.02;;;7.03;;
21771;SDS011;11047;47.904;8.110;2023-05-21T00:36:23;9.90;;;6.82;;
21771;SDS011;11047;47.904;8.110;2023-05-21T00:38:50;10.27;;;8.07;;
21771;SDS011;11047;47.904;8.110;2023-05-21T00:41:17;8.77;;;7.57;;
21771;SDS011;11047;47.904;8.110;2023-05-21T00:43:44;8.55;;;7.68;;
21771;SDS011;11047;47.904;8.110;2023-05-21T00:46:12;8.10;;;7.28;;
21771;SDS011;11047;47.904;8.110;2023-05-21T00:48:42;9.48;;;8.13;;
21771;SDS011;11047;47.904;8.110;2023-05-21T00:51:09;8.80;;;7.82;;
21771;SDS011;11047;47.904;8.110;2023-05-21T00:53:37;7.90;;;7.13;;
21771;SDS011;11047;47.904;8.110;2023-05-21T00:56:05;9.88;;;7.25;;
21771;SDS011;11047;47.904;8.110;2023-05-21T00:58:32;8.95;;;7.57;;
21771;SDS011;11047;47.904;8.110;2023-05-21T01:01:00;9.02;;;8.05;;
21771;SDS011;11047;47.904;8.110;2023-05-21T01:03:30;8.80;;;7.90;;
21771;SDS011;11047;47.904;8.110;2023-05-21T01:06:03;9.07;;;7.25;;
21771;SDS011;11047;47.904;8.110;2023-05-21T01:08:31;8.52;;;7.63;;
21771;SDS011;11047;47.904;8.110;2023-05-21T01:10:59;9.40;;;8.20;;
21771;SDS011;11047;47.904;8.110;2023-05-21T01:13:27;9.02;;;8.13;;
21771;SDS011;11047;47.904;8.110;2023-05-21T01:15:55;10.75;;;8.48;;
21771;SDS011;11047;47.904;8.110;2023-05-21T01:18:23;9.07;;;7.97;;
21771;SDS011;11047;47.904;8.110;2023-05-21T01:20:50;9.77;;;8.10;;
21771;SDS011;11047;47.904;8.110;2023-05-21T01:23:19;9.55;;;7.70;;
21771;SDS011;11047;47.904;8.110;2023-05-21T01:25:46;9.98;;;8.23;;
21771;SDS011;11047;47.904;8.110;2023-05-21T01:28:13;11.68;;;8.23;;
21771;SDS011;11047;47.904;8.110;2023-05-21T01:30:40;7.95;;;7.05;;
21771;SDS011;11047;47.904;8.110;2023-05-21T01:33:10;10.20;;;7.20;;
21771;SDS011;11047;47.904;8.110;2023-05-21T01:35:43;10.48;;;7.53;;
21771;SDS011;11047;47.904;8.110;2023-05-21T01:38:13;9.75;;;7.70;;
21771;SDS011;11047;47.904;8.110;2023-05-21T01:40:49;9.30;;;7.57;;
21771;SDS011;11047;47.904;8.110;2023-05-21T01:43:19;10.00;;;7.78;;
21771;SDS011;11047;47.904;8.110;2023-05-21T01:45:47;9.05;;;8.15;;
21771;SDS011;11047;47.904;8.110;2023-05-21T01:48:17;8.50;;;7.53;;
21771;SDS011;11047;47.904;8.110;2023-05-21T01:50:45;8.80;;;7.90;;
21771;SDS011;11047;47.904;8.110;2023-05-21T01:53:14;9.27;;;8.30;;
21771;SDS011;11047;47.904;8.110;2023-05-21T01:55:41;11.27;;;7.38;;
21771;SDS011;11047;47.904;8.110;2023-05-21T01:58:11;9.93;;;8.88;;
21771;SDS011;11047;47.904;8.110;2023-05-21T02:00:39;11.65;;;9.18;;
21771;SDS011;11047;47.904;8.110;2023-05-21T02:03:06;13.32;;;8.48;;
21771;SDS011;11047;47.904;8.110;2023-05-21T02:05:33;10.43;;;8.73;;
21771;SDS011;11047;47.904;8.110;2023-05-21T02:08:00;10.68;;;8.63;;
21771;SDS011;11047;47.904;8.110;2023-05-21T02:10:27;10.85;;;7.63;;
21771;SDS011;11047;47.904;8.110;2023-05-21T02:12:54;11.27;;;7.88;;
21771;SDS011;11047;47.904;8.110;2023-05-21T02:15:23;9.18;;;7.80;;
21771;SDS011;11047;47.904;8.110;2023-05-21T02:17:50;10.95;;;7.63;;
21771;SDS011;11047;47.904;8.110;2023-05-21T02:20:18;10.23;;;8.48;;
21771;SDS011;11047;47.904;8.110;2023-05-21T02:22:46;8.70;;;7.80;;
21771;SDS011;11047;47.904;8.110;2023-05-21T02:25:15;11.02;;;8.35;;
21771;SDS011;11047;47.904;8.110;2023-05-21T02:27:43;9.25;;;7.53;;
21771;SDS011;11047;47.904;8.110;2023-05-21T02:30:12;9.20;;;8.23;;
21771;SDS011;11047;47.904;8.110;2023-05-21T02:32:41;12.30;;;9.82;;
21771;SDS011;11047;47.904;8.110;2023-05-21T02:35:09;13.48;;;9.05;;
21771;SDS011;11047;47.904;8.110;2023-05-21T02:37:38;11.25;;;8.30;;
21771;SDS011;11047;47.904;8.110;2023-05-21T02:40:06;10.00;;;8.05;;
21771;SDS011;11047;47.904;8.110;2023-05-21T02:42:35;9.63;;;8.63;;
21771;SDS011;11047;47.904;8.110;2023-05-21T02:45:03;10.52;;;8.23;;
21771;SDS011;11047;47.904;8.110;2023-05-21T02:47:31;11.60;;;9.52;;
21771;SDS011;11047;47.904;8.110;2023-05-21T02:50:00;11.38;;;9.18;;
21771;SDS011;11047;47.904;8.110;2023-05-21T02:52:27;9.73;;;8.73;;
21771;SDS011;11047;47.904;8.110;2023-05-21T02:54:54;9.05;;;7.57;;
21771;SDS011;11047;47.904;8.110;2023-05-21T02:57:21;9.80;;;8.80;;
21771;SDS011;11047;47.904;8.110;2023-05-21T02:59:47;9.13;;;7.93;;
21771;SDS011;11047;47.904;8.110;2023-05-21T03:02:15;11.65;;;8.10;;
21771;SDS011;11047;47.904;8.110;2023-05-21T03:04:42;9.77;;;8.77;;
21771;SDS011;11047;47.904;8.110;2023-05-21T03:07:12;14.70;;;8.90;;
21771;SDS011;11047;47.904;8.110;2023-05-21T03:09:39;11.02;;;8.68;;
21771;SDS011;11047;47.904;8.110;2023-05-21T03:12:07;11.48;;;8.48;;
21771;SDS011;11047;47.904;8.110;2023-05-21T03:14:34;9.55;;;8.43;;
21771;SDS011;11047;47.904;8.110;2023-05-21T03:17:01;10.27;;;9.00;;
21771;SDS011;11047;47.904;8.110;2023-05-21T03:19:29;12.30;;;9.35;;
21771;SDS011;11047;47.904;8.110;2023-05-21T03:21:58;11.40;;;9.35;;
21771;SDS011;11047;47.904;8.110;2023-05-21T03:24:27;8.93;;;8.02;;
21771;SDS011;11047;47.904;8.110;2023-05-21T03:26:54;9.75;;;8.70;;
21771;SDS011;11047;47.904;8.110;2023-05-21T03:29:23;11.57;;;9.07;;
21771;SDS011;11047;47.904;8.110;2023-05-21T03:31:50;10.93;;;9.13;;
21771;SDS011;11047;47.904;8.110;2023-05-21T03:34:17;11.65;;;9.43;;
21771;SDS011;11047;47.904;8.110;2023-05-21T03:36:45;11.00;;;9.30;;
21771;SDS011;11047;47.904;8.110;2023-05-21T03:39:12;12.48;;;8.82;;
21771;SDS011;11047;47.904;8.110;2023-05-21T03:41:40;9.93;;;8.93;;
21771;SDS011;11047;47.904;8.110;2023-05-21T03:44:07;10.43;;;8.75;;
21771;SDS011;11047;47.904;8.110;2023-05-21T03:46:34;12.23;;;9.50;;
21771;SDS011;11047;47.904;8.110;2023-05-21T03:49:01;11.55;;;8.88;;
21771;SDS011;11047;47.904;8.110;2023-05-21T03:51:28;14.73;;;8.27;;
21771;SDS011;11047;47.904;8.110;2023-05-21T03:53:56;9.73;;;8.32;;
21771;SDS011;11047;47.904;8.110;2023-05-21T03:56:23;9.68;;;8.68;;
21771;SDS011;11047;47.904;8.110;2023-05-21T03:58:51;11.88;;;9.70;;
21771;SDS011;11047;47.904;8.110;2023-05-21T04:01:18;9.48;;;8.57;;
21771;SDS011;11047;47.904;8.110;2023-05-21T04:03:45;10.27;;;8.95;;
21771;SDS011;11047;47.904;8.110;2023-05-21T04:06:12;11.45;;;8.77;;
21771;SDS011;11047;47.904;8.110;2023-05-21T04:08:40;10.35;;;8.70;;
21771;SDS011;11047;47.904;8.110;2023-05-21T04:11:07;11.85;;;8.77;;
21771;SDS011;11047;47.904;8.110;2023-05-21T04:13:34;12.48;;;8.93;;
21771;SDS011;11047;47.904;8.110;2023-05-21T04:16:02;8.95;;;7.97;;
21771;SDS011;11047;47.904;8.110;2023-05-21T04:18:32;12.52;;;9.35;;
21771;SDS011;11047;47.904;8.110;2023-05-21T04:20:59;10.90;;;8.35;;
21771;SDS011;11047;47.904;8.110;2023-05-21T04:23:26;11.63;;;8.50;;
21771;SDS011;11047;47.904;8.110;2023-05-21T04:25:53;11.30;;;9.60;;
21771;SDS011;11047;47.904;8.110;2023-05-21T04:28:20;9.93;;;8.93;;
21771;SDS011;11047;47.904;8.110;2023-05-21T04:30:52;10.68;;;9.55;;
21771;SDS011;11047;47.904;8.110;2023-05-21T04:33:21;11.02;;;8.93;;
21771;SDS011;11047;47.904;8.110;2023-05-21T04:35:49;11.90;;;9.27;;
21771;SDS011;11047;47.904;8.110;2023-05-21T04:38:17;10.60;;;8.38;;
21771;SDS011;11047;47.904;8.110;2023-05-21T04:40:45;14.63;;;9.32;;
21771;SDS011;11047;47.904;8.110;2023-05-21T04:43:12;12.15;;;9.32;;
21771;SDS011;11047;47.904;8.110;2023-05-21T04:45:41;12.35;;;9.10;;
21771;SDS011;11047;47.904;8.110;2023-05-21T04:48:08;11.57;;;9.00;;
21771;SDS011;11047;47.904;8.110;2023-05-21T04:50:36;11.30;;;9.45;;
21771;SDS011;11047;47.904;8.110;2023-05-21T04:53:05;12.70;;;9.60;;
21771;SDS011;11047;47.904;8.110;2023-05-21T04:55:32;11.48;;;9.30;;
21771;SDS011;11047;47.904;8.110;2023-05-21T04:58:03;12.00;;;9.57;;
21771;SDS011;11047;47.904;8.110;2023-05-21T05:00:31;9.38;;;8.48;;
21771;SDS011;11047;47.904;8.110;2023-05-21T05:02:57;9.75;;;8.23;;
21771;SDS011;11047;47.904;8.110;2023-05-21T05:05:24;8.95;;;8.05;;
21771;SDS011;11047;47.904;8.110;2023-05-21T05:07:53;9.63;;;8.68;;
21771;SDS011;11047;47.904;8.110;2023-05-21T05:10:20;9.57;;;8.65;;
21771;SDS011;11047;47.904;8.110;2023-05-21T05:12:47;12.45;;;9.15;;
21771;SDS011;11047;47.904;8.110;2023-05-21T05:15:14;9.43;;;8.43;;
21771;SDS011;11047;47.904;8.110;2023-05-21T05:17:41;11.38;;;9.63;;
21771;SDS011;11047;47.904;8.110;2023-05-21T05:20:09;10.52;;;9.15;;
21771;SDS011;11047;47.904;8.110;2023-05-21T05:22:36;10.25;;;9.15;;
21771;SDS011;11047;47.904;8.110;2023-05-21T05:25:05;10.55;;;9.45;;
21771;SDS011;11047;47.904;8.110;2023-05-21T05:27:32;13.07;;;10.13;;
21771;SDS011;11047;47.904;8.110;2023-05-21T05:30:00;10.80;;;9.27;;
21771;SDS011;11047;47.904;8.110;2023-05-21T05:32:27;13.15;;;9.27;;
21771;SDS011;11047;47.904;8.110;2023-05-21T05:34:54;11.48;;;9.07;;
21771;SDS011;11047;47.904;8.110;2023-05-21T05:37:21;9.95;;;8.95;;
21771;SDS011;11047;47.904;8.110;2023-05-21T05:39:47;12.20;;;8.65;;
21771;SDS011;11047;47.904;8.110;2023-05-21T05:42:16;9.82;;;8.70;;
21771;SDS011;11047;47.904;8.110;2023-05-21T05:44:43;10.05;;;8.27;;
21771;SDS011;11047;47.904;8.110;2023-05-21T05:47:10;11.40;;;9.07;;
21771;SDS011;11047;47.904;8.110;2023-05-21T05:49:37;9.30;;;8.40;;
21771;SDS011;11047;47.904;8.110;2023-05-21T05:52:04;9.93;;;8.55;;
21771;SDS011;11047;47.904;8.110;2023-05-21T05:54:32;9.50;;;8.40;;
21771;SDS011;11047;47.904;8.110;2023-05-21T05:56:59;11.50;;;9.13;;
21771;SDS011;11047;47.904;8.110;2023-05-21T05:59:27;10.48;;;7.85;;
21771;SDS011;11047;47.904;8.110;2023-05-21T06:01:54;9.10;;;8.20;;
21771;SDS011;11047;47.904;8.110;2023-05-21T06:04:21;11.45;;;8.52;;
21771;SDS011;11047;47.904;8.110;2023-05-21T06:06:48;8.73;;;7.82;;
21771;SDS011;11047;47.904;8.110;2023-05-21T06:09:16;12.63;;;9.07;;
21771;SDS011;11047;47.904;8.110;2023-05-21T06:11:43;11.77;;;8.18;;
21771;SDS011;11047;47.904;8.110;2023-05-21T06:14:10;13.43;;;9.00;;
21771;SDS011;11047;47.904;8.110;2023-05-21T06:16:38;10.43;;;8.95;;
21771;SDS011;11047;47.904;8.110;2023-05-21T06:19:05;10.38;;;8.45;;
21771;SDS011;11047;47.904;8.110;2023-05-21T06:21:32;13.00;;;9.35;;
21771;SDS011;11047;47.904;8.110;2023-05-21T06:23:59;13.13;;;9.25;;
21771;SDS011;11047;47.904;8.110;2023-05-21T06:26:26;10.05;;;9.00;;
21771;SDS011;11047;47.904;8.110;2023-05-21T06:28:53;10.27;;;7.93;;
21771;SDS011;11047;47.904;8.110;2023-05-21T06:31:20;13.60;;;10.48;;
21771;SDS011;11047;47.904;8.110;2023-05-21T06:33:48;10.85;;;9.30;;
21771;SDS011;11047;47.904;8.110;2023-05-21T06:36:15;10.07;;;8.98;;
21771;SDS011;11047;47.904;8.110;2023-05-21T06:38:42;11.75;;;9.90;;
21771;SDS011;11047;47.904;8.110;2023-05-21T06:41:09;13.25;;;10.30;;
21771;SDS011;11047;47.904;8.110;2023-05-21T06:43:36;13.30;;;10.48;;
21771;SDS011;11047;47.904;8.110;2023-05-21T06:46:03;12.80;;;10.82;;
21771;SDS011;11047;47.904;8.110;2023-05-21T06:48:30;13.30;;;10.50;;
21771;SDS011;11047;47.904;8.110;2023-05-21T06:50:58;14.38;;;10.02;;
21771;SDS011;11047;47.904;8.110;2023-05-21T06:53:25;12.82;;;9.48;;
21771;SDS011;11047;47.904;8.110;2023-05-21T06:55:52;11.88;;;9.65;;
21771;SDS011;11047;47.904;8.110;2023-05-21T06:58:19;16.83;;;9.02;;
21771;SDS011;11047;47.904;8.110;2023-05-21T07:00:46;11.23;;;10.02;;
21771;SDS011;11047;47.904;8.110;2023-05-21T07:03:13;12.85;;;9.25;;
21771;SDS011;11047;47.904;8.110;2023-05-21T07:05:41;10.20;;;9.10;;
21771;SDS011;11047;47.904;8.110;2023-05-21T07:08:09;13.35;;;9.93;;
21771;SDS011;11047;47.904;8.110;2023-05-21T07:10:36;10.02;;;9.02;;
21771;SDS011;11047;47.904;8.110;2023-05-21T07:13:03;9.38;;;8.48;;
21771;SDS011;11047;47.904;8.110;2023-05-21T07:15:30;10.38;;;9.02;;
21771;SDS011;11047;47.904;8.110;2023-05-21T07:17:57;11.57;;;10.38;;
21771;SDS011;11047;47.904;8.110;2023-05-21T07:20:24;9.70;;;8.77;;
21771;SDS011;11047;47.904;8.110;2023-05-21T07:22:51;13.93;;;11.20;;
21771;SDS011;11047;47.904;8.110;2023-05-21T07:25:19;13.20;;;10.38;;
21771;SDS011;11047;47.904;8.110;2023-05-21T07:27:46;13.18;;;10.73;;
21771;SDS011;11047;47.904;8.110;2023-05-21T07:30:13;13.45;;;9.93;;
21771;SDS011;11047;47.904;8.110;2023-05-21T07:32:40;11.20;;;10.07;;
21771;SDS011;11047;47.904;8.110;2023-05-21T07:35:08;11.00;;;9.77;;
21771;SDS011;11047;47.904;8.110;2023-05-21T07:37:35;12.77;;;9.52;;
21771;SDS011;11047;47.904;8.110;2023-05-21T07:40:02;12.40;;;9.40;;
21771;SDS011;11047;47.904;8.110;2023-05-21T07:42:31;11.00;;;9.52;;
21771;SDS011;11047;47.904;8.110;2023-05-21T07:44:58;9.93;;;8.85;;
21771;SDS011;11047;47.904;8.110;2023-05-21T07:47:26;10.50;;;9.38;;
21771;SDS011;11047;47.904;8.110;2023-05-21T07:49:53;10.20;;;9.00;;
21771;SDS011;11047;47.904;8.110;2023-05-21T07:52:20;16.45;;;8.10;;
21771;SDS011;11047;47.904;8.110;2023-05-21T07:54:47;11.95;;;8.52;;
21771;SDS011;11047;47.904;8.110;2023-05-21T07:57:13;10.73;;;7.65;;
21771;SDS011;11047;47.904;8.110;2023-05-21T07:59:42;9.20;;;8.30;;
21771;SDS011;11047;47.904;8.110;2023-05-21T08:02:09;9.70;;;7.82;;
21771;SDS011;11047;47.904;8.110;2023-05-21T08:04:36;14.38;;;7.57;;
21771;SDS011;11047;47.904;8.110;2023-05-21T08:07:03;8.65;;;7.25;;
21771;SDS011;11047;47.904;8.110;2023-05-21T08:09:31;8.98;;;7.43;;
21771;SDS011;11047;47.904;8.110;2023-05-21T08:11:58;8.45;;;7.60;;
21771;SDS011;11047;47.904;8.110;2023-05-21T08:14:25;9.38;;;7.47;;
21771;SDS011;11047;47.904;8.110;2023-05-21T08:16:53;9.10;;;7.57;;
21771;SDS011;11047;47.904;8.110;2023-05-21T08:19:20;9.75;;;6.68;;
21771;SDS011;11047;47.904;8.110;2023-05-21T08:21:47;8.23;;;6.88;;
21771;SDS011;11047;47.904;8.110;2023-05-21T08:24:14;7.85;;;6.38;;
21771;SDS011;11047;47.904;8.110;2023-05-21T08:26:41;8.57;;;7.28;;
21771;SDS011;11047;47.904;8.110;2023-05-21T08:29:09;7.75;;;6.82;;
21771;SDS011;11047;47.904;8.110;2023-05-21T08:31:36;7.30;;;6.55;;
21771;SDS011;11047;47.904;8.110;2023-05-21T08:34:05;10.13;;;6.82;;
21771;SDS011;11047;47.904;8.110;2023-05-21T08:36:32;8.65;;;6.40;;
21771;SDS011;11047;47.904;8.110;2023-05-21T08:39:00;7.13;;;6.35;;
21771;SDS011;11047;47.904;8.110;2023-05-21T08:41:27;8.40;;;7.60;;
21771;SDS011;11047;47.904;8.110;2023-05-21T08:44:00;10.23;;;6.40;;
21771;SDS011;11047;47.904;8.110;2023-05-21T08:46:28;6.53;;;5.93;;
21771;SDS011;11047;47.904;8.110;2023-05-21T08:48:58;6.78;;;6.07;;
21771;SDS011;11047;47.904;8.110;2023-05-21T08:51:28;7.25;;;6.53;;
21771;SDS011;11047;47.904;8.110;2023-05-21T08:53:56;9.63;;;6.47;;
21771;SDS011;11047;47.904;8.110;2023-05-21T08:56:25;7.40;;;5.93;;
21771;SDS011;11047;47.904;8.110;2023-05-21T08:58:52;7.38;;;6.45;;
21771;SDS011;11047;47.904;8.110;2023-05-21T09:01:19;6.90;;;6.20;;
21771;SDS011;11047;47.904;8.110;2023-05-21T09:03:47;6.80;;;6.15;;
21771;SDS011;11047;47.904;8.110;2023-05-21T09:06:17;12.13;;;6.60;;
21771;SDS011;11047;47.904;8.110;2023-05-21T09:08:47;7.35;;;5.53;;
21771;SDS011;11047;47.904;8.110;2023-05-21T09:11:22;6.57;;;5.28;;
21771;SDS011;11047;47.904;8.110;2023-05-21T09:13:49;6.15;;;5.55;;
21771;SDS011;11047;47.904;8.110;2023-05-21T09:16:17;5.32;;;4.82;;
21771;SDS011;11047;47.904;8.110;2023-05-21T09:18:45;6.40;;;5.03;;
21771;SDS011;11047;47.904;8.110;2023-05-21T09:21:24;6.07;;;5.50;;
21771;SDS011;11047;47.904;8.110;2023-05-21T09:23:57;6.05;;;5.05;;
21771;SDS011;11047;47.904;8.110;2023-05-21T09:26:25;8.07;;;5.25;;
21771;SDS011;11047;47.904;8.110;2023-05-21T09:28:55;7.85;;;4.90;;
21771;SDS011;11047;47.904;8.110;2023-05-21T09:31:24;7.68;;;4.90;;
21771;SDS011;11047;47.904;8.110;2023-05-21T09:33:51;16.23;;;5.18;;
21771;SDS011;11047;47.904;8.110;2023-05-21T09:36:19;6.15;;;4.72;;
21771;SDS011;11047;47.904;8.110;2023-05-21T09:38:47;5.15;;;4.65;;
21771;SDS011;11047;47.904;8.110;2023-05-21T09:41:15;4.90;;;4.25;;
21771;SDS011;11047;47.904;8.110;2023-05-21T09:43:43;5.55;;;4.47;;
21771;SDS011;11047;47.904;8.110;2023-05-21T09:46:10;6.00;;;4.70;;
21771;SDS011;11047;47.904;8.110;2023-05-21T09:48:37;4.88;;;4.38;;
21771;SDS011;11047;47.904;8.110;2023-05-21T09:51:12;4.90;;;4.20;;
21771;SDS011;11047;47.904;8.110;2023-05-21T09:53:43;4.18;;;3.70;;
21771;SDS011;11047;47.904;8.110;2023-05-21T09:56:15;5.88;;;3.88;;
21771;SDS011;11047;47.904;8.110;2023-05-21T09:58:46;4.38;;;3.92;;
21771;SDS011;11047;47.904;8.110;2023-05-21T10:01:13;4.50;;;3.42;;
21771;SDS011;11047;47.904;8.110;2023-05-21T10:03:40;5.22;;;4.00;;
21771;SDS011;11047;47.904;8.110;2023-05-21T10:06:11;4.45;;;3.75;;
21771;SDS011;11047;47.904;8.110;2023-05-21T10:08:42;4.63;;;3.78;;
21771;SDS011;11047;47.904;8.110;2023-05-21T10:11:10;5.18;;;3.67;;
21771;SDS011;11047;47.904;8.110;2023-05-21T10:13:40;3.78;;;3.47;;
21771;SDS011;11047;47.904;8.110;2023-05-21T10:16:10;4.40;;;4.00;;
21771;SDS011;11047;47.904;8.110;2023-05-21T10:18:37;6.05;;;4.03;;
21771;SDS011;11047;47.904;8.110;2023-05-21T10:21:07;5.38;;;4.80;;
21771;SDS011;11047;47.904;8.110;2023-05-21T10:23:35;6.85;;;6.15;;
21771;SDS011;11047;47.904;8.110;2023-05-21T10:26:03;9.00;;;6.38;;
21771;SDS011;11047;47.904;8.110;2023-05-21T10:28:32;7.82;;;7.03;;
21771;SDS011;11047;47.904;8.110;2023-05-21T10:31:01;8.15;;;7.35;;
21771;SDS011;11047;47.904;8.110;2023-05-21T10:33:29;8.20;;;7.43;;
21771;SDS011;11047;47.904;8.110;2023-05-21T10:35:57;8.40;;;7.55;;
21771;SDS011;11047;47.904;8.110;2023-05-21T10:38:24;9.15;;;7.07;;
21771;SDS011;11047;47.904;8.110;2023-05-21T10:40:54;9.55;;;8.27;;
21771;SDS011;11047;47.904;8.110;2023-05-21T10:43:30;8.98;;;8.05;;
21771;SDS011;11047;47.904;8.110;2023-05-21T10:46:27;8.13;;;7.28;;
21771;SDS011;11047;47.904;8.110;2023-05-21T10:49:26;11.63;;;8.13;;
21771;SDS011;11047;47.904;8.110;2023-05-21T10:54:47;8.27;;;7.22;;
21771;SDS011;11047;47.904;8.110;2023-05-21T11:00:12;9.15;;;7.90;;
21771;SDS011;11047;47.904;8.110;2023-05-21T11:02:43;8.25;;;7.45;;
21771;SDS011;11047;47.904;8.110;2023-05-21T11:05:11;9.68;;;8.65;;
21771;SDS011;11047;47.904;8.110;2023-05-21T11:07:50;10.07;;;8.25;;
21771;SDS011;11047;47.904;8.110;2023-05-21T11:10:29;9.48;;;8.02;;
21771;SDS011;11047;47.904;8.110;2023-05-21T11:13:04;8.32;;;7.53;;
21771;SDS011;11047;47.904;8.110;2023-05-21T11:23:58;21.10;;;18.90;;
21771;SDS011;11047;47.904;8.110;2023-05-21T11:26:27;9.98;;;8.98;;
21771;SDS011;11047;47.904;8.110;2023-05-21T11:29:07;11.40;;;8.98;;
21771;SDS011;11047;47.904;8.110;2023-05-21T11:31:36;9.82;;;8.35;;
21771;SDS011;11047;47.904;8.110;2023-05-21T11:34:14;9.60;;;8.45;;
21771;SDS011;11047;47.904;8.110;2023-05-21T11:36:44;8.25;;;6.68;;
21771;SDS011;11047;47.904;8.110;2023-05-21T11:39:13;8.27;;;7.05;;
21771;SDS011;11047;47.904;8.110;2023-05-21T11:41:49;6.77;;;6.10;;
21771;SDS011;11047;47.904;8.110;2023-05-21T11:44:36;7.60;;;6.38;;
21771;SDS011;11047;47.904;8.110;2023-05-21T11:47:05;7.88;;;6.90;;
21771;SDS011;11047;47.904;8.110;2023-05-21T11:49:34;9.73;;;7.18;;
21771;SDS011;11047;47.904;8.110;2023-05-21T11:52:02;10.77;;;8.80;;
21771;SDS011;11047;47.904;8.110;2023-05-21T11:54:31;10.30;;;9.20;;
21771;SDS011;11047;47.904;8.110;2023-05-21T11:57:01;12.25;;;10.13;;
21771;SDS011;11047;47.904;8.110;2023-05-21T11:59:31;12.10;;;10.90;;
21771;SDS011;11047;47.904;8.110;2023-05-21T12:01:58;11.50;;;10.38;;
21771;SDS011;11047;47.904;8.110;2023-05-21T12:04:28;11.55;;;10.35;;
21771;SDS011;11047;47.904;8.110;2023-05-21T12:06:56;14.00;;;10.50;;
21771;SDS011;11047;47.904;8.110;2023-05-21T12:09:23;12.00;;;10.38;;
21771;SDS011;11047;47.904;8.110;2023-05-21T12:11:50;11.60;;;10.40;;
21771;SDS011;11047;47.904;8.110;2023-05-21T12:14:18;12.55;;;11.00;;
21771;SDS011;11047;47.904;8.110;2023-05-21T12:16:47;11.50;;;10.23;;
21771;SDS011;11047;47.904;8.110;2023-05-21T12:19:16;11.30;;;10.30;;
21771;SDS011;11047;47.904;8.110;2023-05-21T12:21:43;12.60;;;11.00;;
21771;SDS011;11047;47.904;8.110;2023-05-21T12:24:12;12.63;;;10.52;;
21771;SDS011;11047;47.904;8.110;2023-05-21T12:26:41;11.63;;;10.43;;
21771;SDS011;11047;47.904;8.110;2023-05-21T12:29:09;12.68;;;11.38;;
21771;SDS011;11047;47.904;8.110;2023-05-21T12:31:45;12.90;;;11.60;;
21771;SDS011;11047;47.904;8.110;2023-05-21T12:34:13;13.88;;;12.48;;
21771;SDS011;11047;47.904;8.110;2023-05-21T12:36:42;14.35;;;12.90;;
21771;SDS011;11047;47.904;8.110;2023-05-21T12:39:13;15.82;;;14.02;;
21771;SDS011;11047;47.904;8.110;2023-05-21T12:41:41;17.30;;;12.90;;
21771;SDS011;11047;47.904;8.110;2023-05-21T12:44:10;15.77;;;13.95;;
21771;SDS011;11047;47.904;8.110;2023-05-21T12:46:37;14.48;;;13.00;;
21771;SDS011;11047;47.904;8.110;2023-05-21T12:49:04;16.83;;;14.30;;
21771;SDS011;11047;47.904;8.110;2023-05-21T12:51:37;14.93;;;13.15;;
21771;SDS011;11047;47.904;8.110;2023-05-21T12:54:10;15.68;;;14.07;;
21771;SDS011;11047;47.904;8.110;2023-05-21T12:56:44;15.85;;;13.70;;
21771;SDS011;11047;47.904;8.110;2023-05-21T12:59:11;15.27;;;13.68;;
21771;SDS011;11047;47.904;8.110;2023-05-21T13:01:39;15.32;;;13.35;;
21771;SDS011;11047;47.904;8.110;2023-05-21T13:04:07;16.83;;;13.60;;
21771;SDS011;11047;47.904;8.110;2023-05-21T13:06:40;16.30;;;14.43;;
21771;SDS011;11047;47.904;8.110;2023-05-21T13:09:07;16.63;;;14.20;;
21771;SDS011;11047;47.904;8.110;2023-05-21T13:11:34;13.45;;;12.07;;
21771;SDS011;11047;47.904;8.110;2023-05-21T13:14:03;15.48;;;13.10;;
21771;SDS011;11047;47.904;8.110;2023-05-21T13:16:30;19.83;;;12.93;;
21771;SDS011;11047;47.904;8.110;2023-05-21T13:18:57;13.45;;;12.23;;
21771;SDS011;11047;47.904;8.110;2023-05-21T13:21:24;15.10;;;12.77;;
21771;SDS011;11047;47.904;8.110;2023-05-21T13:23:51;15.52;;;13.90;;
21771;SDS011;11047;47.904;8.110;2023-05-21T13:26:17;16.75;;;15.02;;
21771;SDS011;11047;47.904;8.110;2023-05-21T13:28:45;16.80;;;15.10;;
21771;SDS011;11047;47.904;8.110;2023-05-21T13:31:13;16.98;;;14.85;;
21771;SDS011;11047;47.904;8.110;2023-05-21T13:33:40;18.90;;;14.52;;
21771;SDS011;11047;47.904;8.110;2023-05-21T13:36:07;15.95;;;14.15;;
21771;SDS011;11047;47.904;8.110;2023-05-21T13:38:34;17.30;;;15.50;;
21771;SDS011;11047;47.904;8.110;2023-05-21T13:41:01;19.25;;;15.95;;
21771;SDS011;11047;47.904;8.110;2023-05-21T13:43:28;18.65;;;16.65;;
21771;SDS011;11047;47.904;8.110;2023-05-21T13:45:55;19.05;;;16.15;;
21771;SDS011;11047;47.904;8.110;2023-05-21T13:48:23;17.20;;;14.55;;
21771;SDS011;11047;47.904;8.110;2023-05-21T13:50:50;19.50;;;16.00;;
21771;SDS011;11047;47.904;8.110;2023-05-21T13:53:18;16.02;;;14.32;;
21771;SDS011;11047;47.904;8.110;2023-05-21T13:55:44;16.27;;;13.82;;
21771;SDS011;11047;47.904;8.110;2023-05-21T13:58:11;17.48;;;15.52;;
21771;SDS011;11047;47.904;8.110;2023-05-21T14:00:38;16.10;;;14.50;;
21771;SDS011;11047;47.904;8.110;2023-05-21T14:03:07;18.40;;;14.48;;
21771;SDS011;11047;47.904;8.110;2023-05-21T14:05:36;16.08;;;14.43;;
21771;SDS011;11047;47.904;8.110;2023-05-21T14:08:03;17.48;;;15.38;;
21771;SDS011;11047;47.904;8.110;2023-05-21T14:10:30;15.52;;;13.93;;
21771;SDS011;11047;47.904;8.110;2023-05-21T14:12:57;16.52;;;13.80;;
21771;SDS011;11047;47.904;8.110;2023-05-21T14:15:24;15.73;;;14.13;;
21771;SDS011;11047;47.904;8.110;2023-05-21T14:17:51;16.60;;;14.57;;
21771;SDS011;11047;47.904;8.110;2023-05-21T14:20:18;15.48;;;13.82;;
21771;SDS011;11047;47.904;8.110;2023-05-21T14:22:47;14.20;;;12.85;;
21771;SDS011;11047;47.904;8.110;2023-05-21T14:25:14;15.82;;;14.18;;
21771;SDS011;11047;47.904;8.110;2023-05-21T14:27:41;15.00;;;13.50;;
21771;SDS011;11047;47.904;8.110;2023-05-21T14:30:08;14.88;;;13.38;;
21771;SDS011;11047;47.904;8.110;2023-05-21T14:32:35;13.82;;;12.43;;
21771;SDS011;11047;47.904;8.110;2023-05-21T14:35:03;16.23;;;12.77;;
21771;SDS011;11047;47.904;8.110;2023-05-21T14:37:30;14.07;;;12.57;;
21771;SDS011;11047;47.904;8.110;2023-05-21T14:39:59;13.68;;;12.27;;
21771;SDS011;11047;47.904;8.110;2023-05-21T14:42:25;15.70;;;13.02;;
21771;SDS011;11047;47.904;8.110;2023-05-21T14:44:52;15.25;;;13.75;;
21771;SDS011;11047;47.904;8.110;2023-05-21T14:47:19;13.55;;;12.25;;
21771;SDS011;11047;47.904;8.110;2023-05-21T14:49:46;13.73;;;12.32;;
21771;SDS011;11047;47.904;8.110;2023-05-21T14:52:13;13.85;;;12.40;;
21771;SDS011;11047;47.904;8.110;2023-05-21T14:54:40;14.52;;;12.15;;
21771;SDS011;11047;47.904;8.110;2023-05-21T14:57:08;14.73;;;13.05;;